Time;durP1;ratioP1;P1;durP2;ratioP2;P2;SDS_P1;SDS_P2;PMS_P1;PMS_P2;Temp;Humidity;BMP_temperature;BMP_pressure;BME280_temperature;BME280_humidity;BME280_pressure;Samples;Min_cycle;Max_cycle;Signal;HPM_P1;HPM_P2
2021/12/24 00:01:15;;;;;;;24.05;18.67;;;;;;;;;;143738;585;46021;-60
2021/12/24 00:03:42;;;;;;;22.50;17.12;;;;;;;;;;143731;582;47022;-60
2021/12/24 00:06:10;;;;;;;26.92;19.48;;;;;;;;;;143732;589;46012;-59
2021/12/24 00:08:38;;;;;;;21.98;15.32;;;;;;;;;;143733;658;46021;-59
2021/12/24 00:11:05;;;;;;;23.30;16.48;;;;;;;;;;143735;569;46020;-60
2021/12/24 00:13:36;;;;;;;28.30;18.87;;;;;;;;;;143728;583;47020;-59
2021/12/24 00:16:26;;;;;;;26.40;18.30;;;;;;;;;;143732;614;46012;-59
2021/12/24 00:19:01;;;;;;;24.87;17.73;;;;;;;;;;143732;564;46020;-59
2021/12/24 00:35:17;;;;;;;24.08;18.10;;;;;;;;;;143732;600;46022;-60
2021/12/24 00:37:47;;;;;;;23.85;16.05;;;;;;;;;;143731;586;47012;-60
2021/12/24 00:40:20;;;;;;;26.48;17.40;;;;;;;;;;143731;587;46020;-60
2021/12/24 00:42:53;;;;;;;26.77;18.55;;;;;;;;;;143735;601;46020;-59
2021/12/24 00:45:22;;;;;;;27.40;19.65;;;;;;;;;;143730;595;47023;-59
2021/12/24 00:47:51;;;;;;;28.10;17.67;;;;;;;;;;143731;746;46028;-60
2021/12/24 00:50:25;;;;;;;31.83;20.55;;;;;;;;;;143732;579;46020;-59
2021/12/24 00:52:58;;;;;;;30.40;21.25;;;;;;;;;;143736;605;46032;-59
2021/12/24 00:55:28;;;;;;;27.05;19.60;;;;;;;;;;143729;661;47022;-60
2021/12/24 00:57:58;;;;;;;30.15;18.73;;;;;;;;;;143731;656;47012;-60
2021/12/24 01:00:33;;;;;;;26.08;16.40;;;;;;;;;;143731;684;46039;-59
2021/12/24 01:03:01;;;;;;;27.70;19.08;;;;;;;;;;143735;599;46022;-59
2021/12/24 01:05:29;;;;;;;28.58;17.20;;;;;;;;;;143730;597;47018;-59
2021/12/24 01:07:57;;;;;;;27.15;18.77;;;;;;;;;;143733;761;46012;-60
2021/12/24 01:10:31;;;;;;;31.15;22.13;;;;;;;;;;143733;601;45018;-60
2021/12/24 01:12:59;;;;;;;36.07;21.50;;;;;;;;;;143735;589;46022;-59
2021/12/24 01:15:28;;;;;;;33.05;22.27;;;;;;;;;;143733;600;47018;-58
2021/12/24 01:20:47;;;;;;;29.55;21.23;;;;;;;;;;143731;574;47020;-60
2021/12/24 01:26:19;;;;;;;24.52;17.23;;;;;;;;;;143729;602;46022;-59
2021/12/24 01:40:06;;;;;;;27.60;20.12;;;;;;;;;;143729;602;47022;-58
2021/12/24 01:42:41;;;;;;;25.25;17.75;;;;;;;;;;143729;580;46018;-59
2021/12/24 01:45:27;;;;;;;30.95;18.23;;;;;;;;;;143734;629;46023;-60
2021/12/24 01:47:56;;;;;;;;;;;;;;;;;;143732;981;47020;-60
2021/12/24 01:50:27;;;;;;;26.12;16.62;;;;;;;;;;143738;588;46013;-59
2021/12/24 01:52:56;;;;;;;23.75;17.25;;;;;;;;;;143731;587;46012;-60
2021/12/24 01:55:24;;;;;;;30.02;18.23;;;;;;;;;;143735;607;46022;-60
2021/12/24 01:57:51;;;;;;;28.50;19.85;;;;;;;;;;143731;590;47019;-58
2021/12/24 02:00:24;;;;;;;31.45;19.67;;;;;;;;;;143728;573;47013;-60
2021/12/24 02:02:51;;;;;;;30.35;21.95;;;;;;;;;;143732;565;46018;-60
2021/12/24 02:05:19;;;;;;;36.08;25.08;;;;;;;;;;143734;571;46022;-59
2021/12/24 02:07:46;;;;;;;35.28;22.73;;;;;;;;;;143732;631;47019;-60
2021/12/24 02:10:15;;;;;;;32.72;22.83;;;;;;;;;;143731;564;46022;-59
2021/12/24 02:12:42;;;;;;;29.45;20.37;;;;;;;;;;143731;571;46018;-59
2021/12/24 02:15:34;;;;;;;28.27;19.02;;;;;;;;;;143735;564;46023;-59
2021/12/24 02:29:16;;;;;;;32.95;21.92;;;;;;;;;;143734;565;46019;-60
2021/12/24 02:31:43;;;;;;;31.12;22.35;;;;;;;;;;143731;589;46920;-58
2021/12/24 02:34:10;;;;;;;28.50;21.20;;;;;;;;;;143733;580;46018;-60
2021/12/24 02:36:37;;;;;;;29.08;21.73;;;;;;;;;;143735;616;46022;-58
2021/12/24 02:39:06;;;;;;;30.95;20.62;;;;;;;;;;143732;608;47021;-59
2021/12/24 02:41:33;;;;;;;28.23;20.73;;;;;;;;;;143731;589;47022;-58
2021/12/24 02:44:00;;;;;;;27.25;20.45;;;;;;;;;;143731;565;46018;-58
2021/12/24 02:46:38;;;;;;;29.42;19.98;;;;;;;;;;143733;593;46023;-60
2021/12/24 02:53:54;;;;;;;33.03;18.52;;;;;;;;;;143729;580;47020;-59
2021/12/24 02:54:39;;;;;;;26.98;19.85;;;;;;;;;;143732;569;46020;-59
2021/12/24 02:57:10;;;;;;;26.50;18.92;;;;;;;;;;143735;596;46022;-58
2021/12/24 02:59:47;;;;;;;32.13;21.48;;;;;;;;;;143731;576;47019;-59
2021/12/24 03:02:14;;;;;;;29.48;19.80;;;;;;;;;;143733;564;46012;-59
2021/12/24 03:04:41;;;;;;;32.55;22.37;;;;;;;;;;143732;599;46018;-60
2021/12/24 03:07:08;;;;;;;30.12;20.42;;;;;;;;;;143735;691;46023;-59
2021/12/24 03:09:38;;;;;;;37.75;23.73;;;;;;;;;;143731;621;47018;-59
2021/12/24 03:12:05;;;;;;;48.30;26.50;;;;;;;;;;143731;645;47012;-60
2021/12/24 03:14:32;;;;;;;42.28;26.05;;;;;;;;;;143732;569;46019;-58
2021/12/24 03:17:01;;;;;;;42.08;26.50;;;;;;;;;;143733;590;46022;-60
2021/12/24 03:19:32;;;;;;;40.72;24.67;;;;;;;;;;143730;579;47020;-59
2021/12/24 03:24:46;;;;;;;40.08;25.55;;;;;;;;;;143735;575;46012;-59
2021/12/24 03:27:17;;;;;;;34.35;22.62;;;;;;;;;;143737;568;46022;-58
2021/12/24 03:29:44;;;;;;;32.20;22.15;;;;;;;;;;143731;594;47019;-58
2021/12/24 03:32:11;;;;;;;32.50;22.87;;;;;;;;;;143729;569;46012;-59
2021/12/24 03:34:38;;;;;;;42.03;24.23;;;;;;;;;;143733;687;45018;-59
2021/12/24 03:37:05;;;;;;;37.85;23.50;;;;;;;;;;143735;569;46023;-58
2021/12/24 03:39:36;;;;;;;40.78;25.35;;;;;;;;;;143729;602;47018;-59
2021/12/24 03:42:05;;;;;;;32.95;22.95;;;;;;;;;;143731;599;46013;-59
2021/12/24 03:44:37;;;;;;;34.78;23.90;;;;;;;;;;143732;658;46019;-59
2021/12/24 03:47:10;;;;;;;30.65;20.77;;;;;;;;;;143734;586;46022;-59
2021/12/24 03:49:51;;;;;;;33.05;21.48;;;;;;;;;;143732;608;47019;-60
2021/12/24 03:55:08;;;;;;;32.92;21.55;;;;;;;;;;143733;572;46020;-58
2021/12/24 03:57:40;;;;;;;31.20;19.98;;;;;;;;;;143737;638;46022;-59
2021/12/24 04:00:33;;;;;;;31.48;20.75;;;;;;;;;;143731;615;47021;-60
2021/12/24 04:03:02;;;;;;;31.15;20.08;;;;;;;;;;143733;691;46012;-59
2021/12/24 04:05:29;;;;;;;29.83;20.42;;;;;;;;;;143734;564;46018;-58
2021/12/24 04:07:56;;;;;;;30.92;19.70;;;;;;;;;;143731;599;46023;-59
2021/12/24 04:10:40;;;;;;;33.80;21.58;;;;;;;;;;143734;602;47018;-59
2021/12/24 04:13:07;;;;;;;30.80;19.35;;;;;;;;;;143732;615;47012;-59
2021/12/24 04:15:35;;;;;;;28.35;20.50;;;;;;;;;;143732;575;46018;-60
2021/12/24 04:18:11;;;;;;;30.35;21.25;;;;;;;;;;143731;604;46022;-59
2021/12/24 04:26:10;;;;;;;36.13;23.48;;;;;;;;;;143735;565;46018;-60
2021/12/24 04:28:37;;;;;;;33.50;23.62;;;;;;;;;;143737;565;46022;-59
2021/12/24 04:31:04;;;;;;;35.17;25.80;;;;;;;;;;143733;588;47018;-59
2021/12/24 04:33:38;;;;;;;37.03;25.12;;;;;;;;;;143730;571;47012;-58
2021/12/24 05:04:02;;;;;;;34.80;25.02;;;;;;;;;;143732;599;46022;-58
2021/12/24 05:06:37;;;;;;;80.07;51.28;;;;;;;;;;143733;581;46031;-59
2021/12/24 05:09:08;;;;;;;50.95;33.40;;;;;;;;;;143738;605;45018;-60
2021/12/24 05:11:39;;;;;;;57.60;38.75;;;;;;;;;;143737;580;46022;-59
2021/12/24 05:14:08;;;;;;;44.00;30.98;;;;;;;;;;143731;660;47021;-59
2021/12/24 05:16:47;;;;;;;36.17;23.65;;;;;;;;;;143734;600;46033;-54
2021/12/24 05:21:59;;;;;;;35.28;21.80;;;;;;;;;;143737;638;47023;-53
2021/12/24 05:24:29;;;;;;;36.28;23.50;;;;;;;;;;143732;569;47020;-53
2021/12/24 05:26:59;;;;;;;35.42;22.58;;;;;;;;;;143731;582;47011;-53
2021/12/24 05:29:26;;;;;;;36.47;25.20;;;;;;;;;;143730;569;46019;-53
2021/12/24 05:31:53;;;;;;;36.00;23.00;;;;;;;;;;143736;588;46022;-53
2021/12/24 05:34:21;;;;;;;40.28;25.45;;;;;;;;;;143731;589;47019;-53
2021/12/24 05:36:49;;;;;;;40.35;24.95;;;;;;;;;;143733;703;46010;-53
2021/12/24 05:39:17;;;;;;;35.50;24.05;;;;;;;;;;143732;599;46018;-53
2021/12/24 05:41:47;;;;;;;35.42;24.05;;;;;;;;;;143737;581;46022;-54
2021/12/24 05:44:16;;;;;;;32.60;22.92;;;;;;;;;;143732;569;47021;-53
2021/12/24 05:46:45;;;;;;;34.40;21.90;;;;;;;;;;143734;588;46010;-53
2021/12/24 05:49:12;;;;;;;41.75;24.90;;;;;;;;;;143733;590;46018;-53
2021/12/24 05:51:39;;;;;;;35.50;25.10;;;;;;;;;;143737;600;46023;-53
2021/12/24 05:54:06;;;;;;;31.23;21.70;;;;;;;;;;143734;581;47018;-53
2021/12/24 05:56:33;;;;;;;40.67;25.75;;;;;;;;;;143732;603;46011;-53
2021/12/24 05:59:01;;;;;;;59.03;40.35;;;;;;;;;;143733;564;46019;-53
2021/12/24 06:01:28;;;;;;;50.40;35.05;;;;;;;;;;143736;585;47010;-54
2021/12/24 06:03:54;;;;;;;41.60;26.48;;;;;;;;;;143730;590;47019;-53
2021/12/24 06:06:21;;;;;;;40.70;27.52;;;;;;;;;;143732;589;46011;-53
2021/12/24 06:08:49;;;;;;;46.70;27.30;;;;;;;;;;143734;566;46018;-53
2021/12/24 06:11:16;;;;;;;42.90;27.10;;;;;;;;;;143736;645;46022;-53
2021/12/24 06:13:44;;;;;;;36.08;24.33;;;;;;;;;;143732;570;47019;-53
2021/12/24 06:16:11;;;;;;;38.08;24.23;;;;;;;;;;143732;636;46010;-54
2021/12/24 06:18:40;;;;;;;42.17;25.88;;;;;;;;;;143733;583;46018;-53
2021/12/24 06:21:08;;;;;;;44.55;25.92;;;;;;;;;;143740;631;46023;-53
2021/12/24 06:23:37;;;;;;;38.10;25.08;;;;;;;;;;143732;662;47018;-54
2021/12/24 06:26:05;;;;;;;40.58;25.95;;;;;;;;;;143731;572;47010;-53
2021/12/24 06:28:33;;;;;;;41.78;25.65;;;;;;;;;;143734;592;46019;-53
2021/12/24 06:31:02;;;;;;;38.05;26.23;;;;;;;;;;143733;651;46027;-53
2021/12/24 06:33:29;;;;;;;40.33;26.80;;;;;;;;;;143731;618;47018;-54
2021/12/24 06:35:57;;;;;;;40.33;25.80;;;;;;;;;;143731;571;47010;-53
2021/12/24 06:38:24;;;;;;;43.80;31.02;;;;;;;;;;143733;591;46018;-54
2021/12/24 06:40:51;;;;;;;42.60;26.55;;;;;;;;;;143736;576;46022;-53
2021/12/24 06:43:18;;;;;;;42.47;28.95;;;;;;;;;;143731;643;47018;-54
2021/12/24 06:45:47;;;;;;;67.90;37.75;;;;;;;;;;143732;564;46010;-54
2021/12/24 06:48:14;;;;;;;75.03;43.30;;;;;;;;;;143734;584;46018;-54
2021/12/24 06:50:41;;;;;;;67.70;41.53;;;;;;;;;;143727;611;47010;-54
2021/12/24 06:53:08;;;;;;;53.90;34.45;;;;;;;;;;143732;689;47020;-54
2021/12/24 06:55:36;;;;;;;55.97;36.25;;;;;;;;;;143731;581;46011;-54
2021/12/24 06:58:03;;;;;;;48.20;30.73;;;;;;;;;;143734;673;46019;-54
2021/12/24 07:00:31;;;;;;;44.40;27.83;;;;;;;;;;143732;570;46022;-54
2021/12/24 07:02:58;;;;;;;42.42;27.95;;;;;;;;;;143727;708;47018;-54
2021/12/24 07:05:25;;;;;;;48.13;29.45;;;;;;;;;;143730;660;46011;-54
2021/12/24 07:07:53;;;;;;;103.22;56.03;;;;;;;;;;143732;602;46018;-54
2021/12/24 07:10:20;;;;;;;93.55;51.28;;;;;;;;;;143730;578;46022;-54
2021/12/24 07:12:47;;;;;;;90.38;49.83;;;;;;;;;;143733;670;47021;-54
2021/12/24 07:15:14;;;;;;;85.90;48.10;;;;;;;;;;143732;740;46020;-54
2021/12/24 07:17:41;;;;;;;79.47;46.13;;;;;;;;;;143733;566;46018;-54
2021/12/24 07:20:08;;;;;;;74.55;47.95;;;;;;;;;;143738;571;46023;-55
2021/12/24 07:22:35;;;;;;;71.62;44.75;;;;;;;;;;143733;663;47018;-54
2021/12/24 07:25:04;;;;;;;66.90;39.25;;;;;;;;;;143735;583;46022;-54
2021/12/24 07:27:31;;;;;;;55.33;34.08;;;;;;;;;;143735;595;46018;-55
2021/12/24 07:29:58;;;;;;;45.88;30.00;;;;;;;;;;143738;610;46022;-56
2021/12/24 07:32:25;;;;;;;49.75;29.85;;;;;;;;;;143732;585;47020;-54
2021/12/24 07:34:52;;;;;;;89.93;50.83;;;;;;;;;;143730;748;47010;-54
2021/12/24 07:37:19;;;;;;;73.25;43.65;;;;;;;;;;143731;623;46018;-54
2021/12/24 07:39:46;;;;;;;72.47;40.58;;;;;;;;;;143730;706;47012;-55
2021/12/24 07:42:13;;;;;;;67.22;37.80;;;;;;;;;;143725;595;47020;-54
2021/12/24 07:44:40;;;;;;;56.15;35.45;;;;;;;;;;143727;581;47010;-54
2021/12/24 07:47:15;;;;;;;46.75;30.15;;;;;;;;;;143730;579;46018;-54
2021/12/24 07:49:44;;;;;;;47.67;28.17;;;;;;;;;;143728;564;46023;-54
2021/12/24 07:52:13;;;;;;;43.95;28.50;;;;;;;;;;143729;564;47018;-54
2021/12/24 07:54:45;;;;;;;45.22;26.87;;;;;;;;;;143728;584;46010;-55
2021/12/24 07:57:15;;;;;;;42.17;26.17;;;;;;;;;;143729;607;46019;-54
2021/12/24 07:59:44;;;;;;;39.50;24.48;;;;;;;;;;143730;564;46022;-54
2021/12/24 08:02:15;;;;;;;35.50;23.98;;;;;;;;;;143728;597;47018;-54
2021/12/24 08:04:44;;;;;;;35.35;23.35;;;;;;;;;;143728;579;46011;-55
2021/12/24 08:07:11;;;;;;;35.15;23.42;;;;;;;;;;143730;565;46018;-55
2021/12/24 08:09:38;;;;;;;34.90;21.30;;;;;;;;;;143728;565;46022;-55
2021/12/24 08:12:07;;;;;;;31.67;21.08;;;;;;;;;;143726;594;47019;-55
2021/12/24 08:14:35;;;;;;;30.65;22.87;;;;;;;;;;143733;569;46010;-55
2021/12/24 08:17:02;;;;;;;32.17;20.85;;;;;;;;;;143730;566;46018;-55
2021/12/24 08:19:29;;;;;;;39.30;25.42;;;;;;;;;;143729;640;46023;-55
2021/12/24 08:21:57;;;;;;;72.18;41.35;;;;;;;;;;143726;637;47020;-55
2021/12/24 08:24:25;;;;;;;54.60;35.17;;;;;;;;;;143727;569;47010;-55
2021/12/24 08:26:52;;;;;;;44.78;28.23;;;;;;;;;;143737;590;46018;-55
2021/12/24 08:29:21;;;;;;;36.70;24.17;;;;;;;;;;143747;620;46022;-55
2021/12/24 08:31:50;;;;;;;33.25;22.67;;;;;;;;;;143741;581;48018;-55
2021/12/24 08:34:18;;;;;;;34.63;22.73;;;;;;;;;;143742;675;46010;-55
2021/12/24 08:36:46;;;;;;;38.45;27.15;;;;;;;;;;143741;592;45909;-55
2021/12/24 08:39:13;;;;;;;40.72;24.00;;;;;;;;;;143743;596;46022;-56
2021/12/24 08:41:40;;;;;;;32.97;21.33;;;;;;;;;;143738;683;47019;-56
2021/12/24 08:44:07;;;;;;;30.02;20.62;;;;;;;;;;143739;596;46010;-57
2021/12/24 08:46:36;;;;;;;36.13;22.73;;;;;;;;;;143741;563;46018;-57
2021/12/24 08:49:03;;;;;;;41.35;23.02;;;;;;;;;;143740;605;47012;-57
2021/12/24 08:51:31;;;;;;;46.28;25.60;;;;;;;;;;143738;588;47021;-57
2021/12/24 08:53:58;;;;;;;41.50;23.12;;;;;;;;;;143740;578;46027;-57
2021/12/24 08:56:25;;;;;;;42.05;23.42;;;;;;;;;;143742;564;46018;-56
2021/12/24 08:58:52;;;;;;;31.58;21.70;;;;;;;;;;143743;654;46023;-56
2021/12/24 09:01:19;;;;;;;44.63;26.10;;;;;;;;;;143742;705;46020;-57
2021/12/24 09:03:46;;;;;;;35.92;22.42;;;;;;;;;;143739;628;46918;-57
2021/12/24 09:06:13;;;;;;;36.17;24.40;;;;;;;;;;143740;681;46018;-55
2021/12/24 09:08:44;;;;;;;32.58;24.90;;;;;;;;;;143744;639;46022;-54
2021/12/24 09:11:11;;;;;;;35.67;22.75;;;;;;;;;;143738;691;47019;-54
2021/12/24 09:13:38;;;;;;;38.65;26.58;;;;;;;;;;143739;673;47010;-55
2021/12/24 09:16:06;;;;;;;40.20;26.35;;;;;;;;;;143739;645;47018;-55
2021/12/24 09:18:33;;;;;;;35.88;24.23;;;;;;;;;;143744;570;46022;-55
2021/12/24 09:21:02;;;;;;;39.50;24.58;;;;;;;;;;143738;591;47032;-55
2021/12/24 09:23:29;;;;;;;43.55;25.62;;;;;;;;;;143741;619;46010;-55
2021/12/24 09:25:56;;;;;;;37.05;23.33;;;;;;;;;;143741;587;46018;-55
2021/12/24 09:28:23;;;;;;;31.35;21.62;;;;;;;;;;143745;564;46010;-54
2021/12/24 09:30:50;;;;;;;36.35;21.02;;;;;;;;;;143739;604;47020;-55
2021/12/24 09:33:17;;;;;;;36.75;21.08;;;;;;;;;;143740;569;46029;-55
2021/12/24 09:35:44;;;;;;;31.70;21.10;;;;;;;;;;143740;566;45909;-55
2021/12/24 09:38:12;;;;;;;30.52;19.52;;;;;;;;;;143745;585;45022;-57
2021/12/24 09:40:39;;;;;;;30.92;19.77;;;;;;;;;;143741;592;47019;-54
2021/12/24 09:43:06;;;;;;;27.92;18.95;;;;;;;;;;143740;584;46010;-54
2021/12/24 09:45:33;;;;;;;33.65;21.95;;;;;;;;;;143741;619;46018;-54
2021/12/24 09:48:00;;;;;;;32.00;23.48;;;;;;;;;;143744;565;46022;-54
2021/12/24 09:50:28;;;;;;;27.20;19.40;;;;;;;;;;143739;581;47021;-54
2021/12/24 09:52:56;;;;;;;31.10;20.08;;;;;;;;;;143742;623;46010;-54
2021/12/24 09:55:26;;;;;;;32.30;19.83;;;;;;;;;;143743;606;45019;-54
2021/12/24 09:57:53;;;;;;;28.90;18.67;;;;;;;;;;143743;580;46023;-57
2021/12/24 10:00:24;;;;;;;35.60;21.90;;;;;;;;;;143740;614;47018;-55
2021/12/24 10:02:57;;;;;;;32.33;22.27;;;;;;;;;;143740;564;47010;-54
2021/12/24 10:05:43;;;;;;;31.70;22.13;;;;;;;;;;143741;630;46018;-56
2021/12/24 10:08:21;;;;;;;54.25;35.20;;;;;;;;;;143743;575;46022;-56
2021/12/24 10:10:53;;;;;;;36.88;25.62;;;;;;;;;;143740;565;47024;-56
2021/12/24 10:13:42;;;;;;;43.63;30.17;;;;;;;;;;143741;633;46010;-54
2021/12/24 10:16:19;;;;;;;40.92;26.48;;;;;;;;;;143742;603;46018;-54
2021/12/24 10:18:51;;;;;;;33.10;23.77;;;;;;;;;;143742;621;46022;-54
2021/12/24 10:21:23;;;;;;;33.58;22.50;;;;;;;;;;143738;654;47020;-54
2021/12/24 10:24:00;;;;;;;27.15;19.33;;;;;;;;;;143740;638;46010;-54
2021/12/24 10:26:50;;;;;;;32.55;19.65;;;;;;;;;;143741;618;46019;-55
2021/12/24 10:29:27;;;;;;;31.35;19.12;;;;;;;;;;143741;625;46022;-54
2021/12/24 10:31:56;;;;;;;23.30;18.65;;;;;;;;;;143740;589;47018;-54
2021/12/24 10:34:26;;;;;;;28.35;20.30;;;;;;;;;;143741;585;46011;-54
2021/12/24 10:37:09;;;;;;;24.90;18.42;;;;;;;;;;143742;590;46018;-54
2021/12/24 10:39:58;;;;;;;28.45;19.17;;;;;;;;;;143742;569;46022;-54
2021/12/24 10:42:37;;;;;;;30.70;18.52;;;;;;;;;;143739;594;47021;-55
2021/12/24 10:45:10;;;;;;;23.30;16.33;;;;;;;;;;143740;665;46010;-54
2021/12/24 10:47:40;;;;;;;22.08;18.05;;;;;;;;;;143740;569;46018;-55
2021/12/24 10:50:30;;;;;;;25.58;20.60;;;;;;;;;;143742;619;46023;-55
2021/12/24 10:53:21;;;;;;;23.23;17.52;;;;;;;;;;143740;603;47018;-55
2021/12/24 10:55:53;;;;;;;22.15;17.02;;;;;;;;;;143740;606;46010;-55
2021/12/24 10:58:23;;;;;;;24.45;17.58;;;;;;;;;;143742;582;46018;-55
2021/12/24 11:00:53;;;;;;;24.92;17.85;;;;;;;;;;143743;713;46022;-55
2021/12/24 11:03:22;;;;;;;20.92;16.77;;;;;;;;;;143740;575;47028;-56
2021/12/24 11:06:05;;;;;;;21.35;15.63;;;;;;;;;;143740;569;47010;-55
2021/12/24 11:08:32;;;;;;;23.17;16.80;;;;;;;;;;143739;614;47018;-55
2021/12/24 11:11:01;;;;;;;21.70;16.08;;;;;;;;;;143744;643;46023;-55
2021/12/24 11:13:40;;;;;;;28.25;17.15;;;;;;;;;;143740;607;46032;-55
2021/12/24 11:16:08;;;;;;;24.55;19.05;;;;;;;;;;143740;619;46028;-55
2021/12/24 11:18:41;;;;;;;22.65;17.33;;;;;;;;;;143743;608;46019;-55
2021/12/24 11:21:17;;;;;;;28.10;17.65;;;;;;;;;;143742;782;46022;-54
2021/12/24 11:23:44;;;;;;;28.27;16.30;;;;;;;;;;143737;618;48020;-55
2021/12/24 11:26:19;;;;;;;28.23;17.00;;;;;;;;;;143734;742;47011;-55
2021/12/24 11:28:47;;;;;;;31.37;18.55;;;;;;;;;;143743;649;46018;-54
2021/12/24 11:31:30;;;;;;;24.75;18.35;;;;;;;;;;143744;741;45022;-55
2021/12/24 11:33:58;;;;;;;33.17;19.33;;;;;;;;;;143739;832;47019;-55
2021/12/24 11:36:27;;;;;;;23.25;18.00;;;;;;;;;;143740;585;47010;-55
2021/12/24 11:38:57;;;;;;;23.77;16.87;;;;;;;;;;143740;773;47018;-55
2021/12/24 11:41:29;;;;;;;26.08;16.73;;;;;;;;;;143746;585;46023;-54
2021/12/24 11:43:56;;;;;;;21.50;15.43;;;;;;;;;;143740;583;47018;-55
2021/12/24 11:46:25;;;;;;;30.95;21.27;;;;;;;;;;143740;699;46029;-55
2021/12/24 11:48:55;;;;;;;22.37;16.00;;;;;;;;;;143743;616;45019;-55
2021/12/24 11:51:31;;;;;;;21.25;15.32;;;;;;;;;;143743;617;46022;-55
2021/12/24 11:54:03;;;;;;;28.02;20.17;;;;;;;;;;143738;591;47020;-55
2021/12/24 11:56:47;;;;;;;24.10;17.95;;;;;;;;;;143740;600;46010;-55
2021/12/24 11:59:15;;;;;;;18.85;16.23;;;;;;;;;;143743;640;45018;-55
2021/12/24 12:01:43;;;;;;;26.15;20.50;;;;;;;;;;143743;576;46022;-55
2021/12/24 12:04:19;;;;;;;27.13;20.40;;;;;;;;;;143739;581;47018;-55
2021/12/24 12:06:46;;;;;;;29.37;19.12;;;;;;;;;;143741;582;45917;-55
2021/12/24 12:09:14;;;;;;;22.48;17.65;;;;;;;;;;143742;630;46018;-55
2021/12/24 12:11:43;;;;;;;23.50;17.37;;;;;;;;;;143744;589;46023;-56
2021/12/24 12:14:31;;;;;;;21.05;15.43;;;;;;;;;;143741;608;47018;-56
2021/12/24 12:17:03;;;;;;;20.80;14.30;;;;;;;;;;143739;603;47010;-54
2021/12/24 12:25:32;;;;;;;20.92;16.17;;;;;;;;;;143743;609;46020;-56
2021/12/24 12:28:06;;;;;;;26.40;16.75;;;;;;;;;;143740;587;46010;-55
2021/12/24 12:30:47;;;;;;;21.45;15.70;;;;;;;;;;143742;593;46018;-54
2021/12/24 12:33:22;;;;;;;22.35;17.80;;;;;;;;;;143743;654;46023;-56
2021/12/24 12:35:56;;;;;;;21.02;16.85;;;;;;;;;;143740;675;47018;-54
2021/12/24 12:38:39;;;;;;;25.55;17.73;;;;;;;;;;143739;594;47010;-54
2021/12/24 12:41:33;;;;;;;22.20;16.20;;;;;;;;;;143736;589;46019;-55
2021/12/24 12:44:07;;;;;;;22.23;16.05;;;;;;;;;;143740;586;46024;-54
2021/12/24 12:46:37;;;;;;;20.67;15.82;;;;;;;;;;143739;577;47019;-55
2021/12/24 12:49:07;;;;;;;17.33;13.43;;;;;;;;;;143741;589;46010;-54
2021/12/24 12:51:54;;;;;;;24.98;16.40;;;;;;;;;;143742;652;46018;-54
2021/12/24 12:54:33;;;;;;;24.23;19.10;;;;;;;;;;143744;617;46022;-54
2021/12/24 12:57:18;;;;;;;27.67;17.15;;;;;;;;;;143740;593;47018;-55
2021/12/24 13:00:18;;;;;;;26.50;14.05;;;;;;;;;;143740;564;47022;-55
2021/12/24 13:03:08;;;;;;;24.27;16.58;;;;;;;;;;143741;600;46021;-54
2021/12/24 13:05:56;;;;;;;18.98;14.98;;;;;;;;;;143742;586;46022;-54
2021/12/24 13:08:25;;;;;;;21.85;15.07;;;;;;;;;;143740;593;47018;-54
2021/12/24 13:11:08;;;;;;;21.87;15.70;;;;;;;;;;143740;570;46029;-54
2021/12/24 13:14:00;;;;;;;21.08;16.02;;;;;;;;;;143742;589;46018;-54
2021/12/24 13:22:34;;;;;;;18.60;13.48;;;;;;;;;;143742;638;45917;-55
2021/12/24 13:25:26;;;;;;;22.70;14.55;;;;;;;;;;143743;691;46019;-54
2021/12/24 13:27:55;;;;;;;18.42;14.07;;;;;;;;;;143740;712;46024;-54
2021/12/24 13:30:32;;;;;;;21.33;15.90;;;;;;;;;;143739;707;47020;-54
2021/12/24 13:33:06;;;;;;;19.40;15.48;;;;;;;;;;143739;609;46022;-55
2021/12/24 13:35:41;;;;;;;19.98;14.85;;;;;;;;;;143742;630;45018;-54
2021/12/24 13:38:18;;;;;;;20.30;13.53;;;;;;;;;;143744;565;46022;-55
2021/12/24 13:40:46;;;;;;;20.98;15.35;;;;;;;;;;143739;634;47019;-55
2021/12/24 13:43:15;;;;;;;17.25;13.77;;;;;;;;;;143740;588;46028;-55
2021/12/24 13:45:47;;;;;;;18.67;13.70;;;;;;;;;;143742;638;45018;-54
2021/12/24 13:48:26;;;;;;;23.90;16.42;;;;;;;;;;143744;590;46023;-54
2021/12/24 13:56:46;;;;;;;19.37;14.55;;;;;;;;;;143739;601;47021;-56
2021/12/24 13:59:24;;;;;;;17.40;13.38;;;;;;;;;;143743;649;46022;-55
2021/12/24 14:01:52;;;;;;;19.95;12.80;;;;;;;;;;143739;579;47019;-55
2021/12/24 14:04:21;;;;;;;19.67;14.75;;;;;;;;;;143740;585;46010;-54
2021/12/24 14:06:55;;;;;;;24.52;17.40;;;;;;;;;;143742;612;45909;-54
2021/12/24 14:09:40;;;;;;;24.50;18.27;;;;;;;;;;143743;569;46022;-55
2021/12/24 14:12:08;;;;;;;18.92;14.32;;;;;;;;;;143739;630;47018;-55
2021/12/24 14:15:05;;;;;;;19.60;13.93;;;;;;;;;;143738;630;47010;-54
2021/12/24 14:20:28;;;;;;;21.95;15.05;;;;;;;;;;143742;593;46024;-55
2021/12/24 14:22:55;;;;;;;18.55;12.30;;;;;;;;;;143739;578;47020;-54
2021/12/24 14:25:22;;;;;;;20.08;15.15;;;;;;;;;;143740;607;46011;-54
2021/12/24 14:27:50;;;;;;;21.95;15.60;;;;;;;;;;143743;574;45018;-54
2021/12/24 14:30:20;;;;;;;34.38;18.05;;;;;;;;;;143742;626;46022;-54
2021/12/24 14:32:50;;;;;;;17.87;13.30;;;;;;;;;;143739;613;47019;-54
2021/12/24 14:35:29;;;;;;;30.85;18.15;;;;;;;;;;143731;585;47010;-54
2021/12/24 14:38:01;;;;;;;30.95;16.45;;;;;;;;;;143742;592;46018;-54
2021/12/24 14:40:30;;;;;;;23.77;15.77;;;;;;;;;;143746;607;46023;-55
2021/12/24 14:42:58;;;;;;;27.73;16.27;;;;;;;;;;143740;613;47018;-55
2021/12/24 14:45:37;;;;;;;25.08;17.70;;;;;;;;;;143739;594;47010;-55
2021/12/24 14:48:32;;;;;;;35.53;16.45;;;;;;;;;;143743;616;46019;-55
2021/12/24 14:51:07;;;;;;;28.02;18.42;;;;;;;;;;143745;590;46022;-55
2021/12/24 14:53:36;;;;;;;;;;;;;;;;;;143744;983;47020;-55
2021/12/24 14:56:12;;;;;;;27.25;17.80;;;;;;;;;;143753;583;46010;-55
2021/12/24 14:58:56;;;;;;;18.90;14.32;;;;;;;;;;143744;616;45018;-55
2021/12/24 15:01:29;;;;;;;22.55;15.48;;;;;;;;;;143745;574;46022;-55
2021/12/24 15:04:10;;;;;;;26.55;17.55;;;;;;;;;;143739;588;47021;-55
2021/12/24 15:06:41;;;;;;;19.70;14.93;;;;;;;;;;143741;646;47010;-55
2021/12/24 15:09:33;;;;;;;23.25;17.33;;;;;;;;;;143742;593;45019;-55
2021/12/24 15:12:16;;;;;;;26.98;16.73;;;;;;;;;;143746;632;45024;-55
2021/12/24 15:14:43;;;;;;;26.12;18.20;;;;;;;;;;143741;604;47020;-54
2021/12/24 15:17:09;;;;;;;34.20;20.37;;;;;;;;;;143742;570;46023;-54
2021/12/24 15:19:37;;;;;;;26.48;17.35;;;;;;;;;;143744;602;45018;-55
2021/12/24 15:22:04;;;;;;;34.15;19.20;;;;;;;;;;143743;599;46022;-56
2021/12/24 15:24:31;;;;;;;30.05;19.17;;;;;;;;;;143738;614;47019;-56
2021/12/24 15:26:59;;;;;;;25.55;18.15;;;;;;;;;;143739;605;47010;-55
2021/12/24 15:29:25;;;;;;;32.40;20.58;;;;;;;;;;143741;573;46018;-55
2021/12/24 15:31:52;;;;;;;27.50;18.12;;;;;;;;;;143744;626;46023;-55
2021/12/24 15:34:19;;;;;;;51.47;29.77;;;;;;;;;;143741;569;47018;-55
2021/12/24 15:36:46;;;;;;;27.37;20.15;;;;;;;;;;143740;622;47010;-55
2021/12/24 15:39:13;;;;;;;43.13;27.27;;;;;;;;;;143743;569;46019;-55
2021/12/24 15:41:45;;;;;;;30.83;21.45;;;;;;;;;;143744;574;46023;-55
2021/12/24 15:44:13;;;;;;;32.03;21.98;;;;;;;;;;143742;588;47018;-55
2021/12/24 15:46:40;;;;;;;34.08;21.67;;;;;;;;;;143742;589;46011;-55
2021/12/24 15:49:07;;;;;;;28.90;19.00;;;;;;;;;;143744;581;45018;-55
2021/12/24 15:51:36;;;;;;;33.08;22.48;;;;;;;;;;143744;598;46022;-55
2021/12/24 15:54:03;;;;;;;22.98;18.08;;;;;;;;;;143740;605;47019;-55
2021/12/24 15:56:30;;;;;;;20.40;14.52;;;;;;;;;;143741;589;46027;-55
2021/12/24 15:58:58;;;;;;;29.85;20.45;;;;;;;;;;143742;579;46018;-55
2021/12/24 16:01:25;;;;;;;34.03;21.00;;;;;;;;;;143745;570;45023;-55
2021/12/24 16:03:52;;;;;;;31.62;19.17;;;;;;;;;;143738;590;48018;-55
2021/12/24 16:06:20;;;;;;;28.75;21.40;;;;;;;;;;143741;627;46010;-55
2021/12/24 16:08:48;;;;;;;28.58;18.33;;;;;;;;;;143744;565;45019;-55
2021/12/24 16:11:15;;;;;;;30.73;17.17;;;;;;;;;;143743;569;46010;-55
2021/12/24 16:13:44;;;;;;;29.33;19.33;;;;;;;;;;143741;567;47020;-55
2021/12/24 16:16:12;;;;;;;30.80;19.60;;;;;;;;;;143741;608;46010;-55
2021/12/24 16:18:38;;;;;;;30.30;21.05;;;;;;;;;;143744;592;45018;-55
2021/12/24 16:21:05;;;;;;;22.58;15.30;;;;;;;;;;143745;591;45022;-55
2021/12/24 16:23:36;;;;;;;33.47;22.20;;;;;;;;;;143740;577;47019;-55
2021/12/24 16:26:03;;;;;;;30.58;19.80;;;;;;;;;;143740;570;47010;-55
2021/12/24 16:28:30;;;;;;;25.92;17.70;;;;;;;;;;143743;585;46018;-54